Time;durP1;ratioP1;P1;durP2;ratioP2;P2;SDS_P1;SDS_P2;PMS_P1;PMS_P2;Temp;Humidity;BMP_temperature;BMP_pressure;BME280_temperature;BME280_humidity;BME280_pressure;Samples;Min_cycle;Max_cycle;Signal;HPM_P1;HPM_P2
2022/05/29 00:01:44;;;;;;;5.32;1.80;;;13.60;99.90;;;;;;5091002;28;20172;-56
2022/05/29 00:04:10;;;;;;;6.13;1.95;;;;;;;;;;5090803;28;20670;-56
2022/05/29 00:06:39;;;;;;;4.85;1.77;;;13.40;99.90;;;;;;5090628;28;20277;-56
2022/05/29 00:09:06;;;;;;;5.13;1.73;;;13.40;99.90;;;;;;5090679;28;20287;-57
2022/05/29 00:11:32;;;;;;;4.50;1.90;;;13.20;99.90;;;;;;5090747;28;20636;-57
2022/05/29 00:14:00;;;;;;;8.63;2.47;;;13.20;99.90;;;;;;5090917;28;20176;-56
2022/05/29 00:16:27;;;;;;;7.50;1.88;;;12.90;99.90;;;;;;5090631;28;20267;-57
2022/05/29 00:18:53;;;;;;;6.75;1.98;;;13.00;99.90;;;;;;5090349;28;20168;-58
2022/05/29 00:21:19;;;;;;;7.28;3.05;;;13.00;99.90;;;;;;5090373;28;20548;-56
2022/05/29 00:23:49;;;;;;;5.95;2.55;;;13.50;99.90;;;;;;5090715;28;20263;-56
2022/05/29 00:26:18;;;;;;;4.50;2.08;;;12.80;99.90;;;;;;5090719;28;20292;-56
2022/05/29 00:28:44;;;;;;;5.75;2.22;;;13.20;99.90;;;;;;5089933;28;20185;-56
2022/05/29 00:31:12;;;;;;;7.90;2.22;;;12.80;99.90;;;;;;5089909;28;20195;-57
2022/05/29 00:33:38;;;;;;;7.18;2.10;;;12.90;99.90;;;;;;5090647;28;20179;-57
2022/05/29 00:36:04;;;;;;;5.82;1.98;;;12.90;99.90;;;;;;5090344;28;20180;-57
2022/05/29 00:38:37;;;;;;;7.72;2.13;;;12.50;99.90;;;;;;5091225;28;20183;-57
2022/05/29 00:41:03;;;;;;;6.57;2.58;;;;;;;;;;5094504;28;20636;-56
2022/05/29 00:43:29;;;;;;;7.22;2.35;;;;;;;;;;5094108;28;20193;-56
2022/05/29 00:45:57;;;;;;;6.38;2.00;;;12.90;99.90;;;;;;5094606;28;20206;-56
2022/05/29 00:48:25;;;;;;;4.40;1.83;;;12.80;99.90;;;;;;5094411;28;20750;-57
2022/05/29 00:50:54;;;;;;;5.38;1.83;;;12.90;99.90;;;;;;5094687;28;20226;-57
2022/05/29 00:53:21;;;;;;;6.05;2.25;;;12.90;99.90;;;;;;5094029;28;20207;-60
2022/05/29 00:55:56;;;;;;;7.72;2.25;;;12.80;99.90;;;;;;5094344;28;20164;-57
2022/05/29 00:58:23;;;;;;;7.07;2.20;;;12.60;99.90;;;;;;5092908;28;20523;-57
2022/05/29 01:00:51;;;;;;;5.95;1.98;;;12.80;99.90;;;;;;5093851;28;20566;-56
2022/05/29 01:03:17;;;;;;;6.10;2.25;;;;;;;;;;5093930;28;20186;-56
2022/05/29 01:05:43;;;;;;;4.28;1.90;;;13.00;99.90;;;;;;5094072;28;20179;-56
2022/05/29 01:08:18;;;;;;;4.90;1.92;;;13.00;99.90;;;;;;5094087;28;20216;-56
2022/05/29 01:10:56;;;;;;;5.43;2.03;;;13.00;99.90;;;;;;5092313;28;20647;-56
2022/05/29 01:13:48;;;;;;;5.18;1.92;;;12.90;99.90;;;;;;5093924;28;20183;-56
2022/05/29 01:16:24;;;;;;;4.20;1.73;;;12.90;99.90;;;;;;5093577;28;20718;-56
2022/05/29 01:18:58;;;;;;;11.02;2.67;;;12.70;99.90;;;;;;5093784;28;20168;-56
2022/05/29 01:22:00;;;;;;;8.68;2.22;;;13.10;99.90;;;;;;5093781;28;20191;-56
2022/05/29 01:24:34;;;;;;;6.30;2.00;;;12.80;99.90;;;;;;5093583;28;20258;-56
2022/05/29 01:27:18;;;;;;;4.22;1.95;;;12.90;99.90;;;;;;5093554;28;20207;-56
2022/05/29 01:30:12;;;;;;;3.40;1.60;;;13.10;99.90;;;;;;5093516;28;20659;-57
2022/05/29 01:32:59;;;;;;;4.68;1.80;;;12.90;99.90;;;;;;5093506;28;20183;-57
2022/05/29 01:35:49;;;;;;;8.63;1.98;;;13.00;99.90;;;;;;5092987;28;20278;-56
2022/05/29 01:38:21;;;;;;;5.75;1.70;;;13.20;99.90;;;;;;5093324;28;20172;-56
2022/05/29 01:40:47;;;;;;;2.58;1.60;;;;;;;;;;5093711;28;20172;-56
2022/05/29 01:43:27;;;;;;;5.60;1.75;;;12.90;99.90;;;;;;5093401;28;20731;-56
2022/05/29 01:45:59;;;;;;;7.07;1.63;;;12.80;99.90;;;;;;5093039;28;20167;-56
2022/05/29 01:48:47;;;;;;;8.00;1.80;;;12.80;99.90;;;;;;5093060;28;20205;-56
2022/05/29 01:51:22;;;;;;;6.40;1.65;;;13.00;99.90;;;;;;5091918;28;20636;-56
2022/05/29 01:53:51;;;;;;;5.80;1.70;;;12.50;99.90;;;;;;5093172;28;20182;-55
2022/05/29 01:56:26;;;;;;;4.57;1.55;;;12.70;99.90;;;;;;5093086;28;20172;-56
2022/05/29 01:58:59;;;;;;;7.22;1.55;;;12.60;99.90;;;;;;5092592;28;20214;-56
2022/05/29 02:01:30;;;;;;;4.57;1.75;;;12.60;99.90;;;;;;5093117;28;20184;-56
2022/05/29 02:04:01;;;;;;;8.05;1.50;;;12.60;99.90;;;;;;5093054;28;20161;-57
2022/05/29 02:09:35;;;;;;;6.22;2.05;;;12.60;99.90;;;;;;5093000;28;20232;-57
2022/05/29 02:12:02;;;;;;;5.18;1.65;;;12.50;99.90;;;;;;5092507;28;20170;-56
2022/05/29 02:14:34;;;;;;;2.95;1.60;;;12.30;99.90;;;;;;5092088;28;20183;-56
2022/05/29 02:17:25;;;;;;;8.20;1.58;;;12.20;99.90;;;;;;5092009;28;20211;-56
2022/05/29 02:20:05;;;;;;;5.07;1.58;;;12.30;99.90;;;;;;5092868;28;20168;-56
2022/05/29 02:22:35;;;;;;;3.83;1.42;;;12.30;99.90;;;;;;5092836;28;20175;-56
2022/05/29 02:25:10;;;;;;;5.93;1.43;;;12.20;99.90;;;;;;5092478;28;20209;-55
2022/05/29 02:27:50;;;;;;;2.83;1.50;;;12.10;99.90;;;;;;5092485;28;20207;-55
2022/05/29 02:30:16;;;;;;;10.77;1.60;;;12.10;99.90;;;;;;5092526;28;20179;-56
2022/05/29 02:32:57;;;;;;;5.63;1.70;;;14.20;99.90;;;;;;5092217;28;20179;-56
2022/05/29 02:35:31;;;;;;;7.00;1.70;;;12.10;99.90;;;;;;5092445;28;20167;-56
2022/05/29 02:38:25;;;;;;;3.15;1.35;;;11.90;99.90;;;;;;5092120;28;20179;-56
2022/05/29 02:41:08;;;;;;;1.97;1.20;;;12.00;99.90;;;;;;5092286;28;20168;-57
2022/05/29 02:44:01;;;;;;;4.23;1.20;;;12.00;99.90;;;;;;5092024;28;20180;-56
2022/05/29 02:46:32;;;;;;;4.05;1.25;;;12.00;99.90;;;;;;5091802;28;20208;-56
2022/05/29 02:49:09;;;;;;;2.97;1.17;;;11.90;99.90;;;;;;5092260;28;20167;-56
2022/05/29 02:51:43;;;;;;;5.07;1.53;;;11.80;99.90;;;;;;5091731;28;20199;-56
2022/05/29 02:54:19;;;;;;;2.87;1.20;;;11.90;99.90;;;;;;5092265;28;20255;-56
2022/05/29 02:56:44;;;;;;;5.60;1.50;;;11.80;99.90;;;;;;5092204;28;20224;-55
2022/05/29 02:59:11;;;;;;;3.13;1.00;;;11.80;99.90;;;;;;5091589;28;20179;-55
2022/05/29 03:01:54;;;;;;;8.00;1.57;;;11.70;99.90;;;;;;5092022;28;20168;-55
2022/05/29 03:04:35;;;;;;;7.27;1.20;;;11.60;99.90;;;;;;5091637;28;20647;-56
2022/05/29 03:07:10;;;;;;;3.70;1.10;;;11.50;99.90;;;;;;5091599;28;20276;-56
2022/05/29 03:09:47;;;;;;;4.27;1.50;;;11.30;99.90;;;;;;5091559;28;20571;-56
2022/05/29 03:12:33;;;;;;;3.90;1.30;;;11.50;99.90;;;;;;5091498;28;20178;-56
2022/05/29 03:15:34;;;;;;;2.93;1.10;;;11.20;99.90;;;;;;5084122;28;20203;-55
2022/05/29 03:18:20;;;;;;;3.17;1.00;;;11.40;99.90;;;;;;5088193;28;20191;-55
2022/05/29 03:21:25;;;;;;;5.57;1.10;;;11.30;99.90;;;;;;5091618;28;20160;-56
2022/05/29 03:24:16;;;;;;;5.57;1.00;;;11.30;99.90;;;;;;5048595;28;20181;-56
2022/05/29 03:26:59;;;;;;;3.37;1.20;;;11.30;99.90;;;;;;5048584;28;20224;-56
2022/05/29 03:29:59;;;;;;;1.97;0.90;;;11.20;99.90;;;;;;5064855;28;20198;-58
2022/05/29 03:32:25;;;;;;;4.67;1.13;;;11.20;99.90;;;;;;5070790;28;20263;-56
2022/05/29 03:34:53;;;;;;;3.53;1.03;;;11.10;99.90;;;;;;5070850;28;20263;-56
2022/05/29 03:37:19;;;;;;;5.03;0.80;;;11.10;99.90;;;;;;5082787;28;20675;-56
2022/05/29 03:39:44;;;;;;;1.93;1.03;;;11.10;99.90;;;;;;5090722;28;20172;-56
2022/05/29 03:42:10;;;;;;;6.13;1.13;;;11.10;99.90;;;;;;5091324;28;20178;-56
2022/05/29 03:44:36;;;;;;;5.20;1.60;;;11.00;99.90;;;;;;5091192;28;20217;-55
2022/05/29 03:47:02;;;;;;;3.33;0.90;;;11.00;99.90;;;;;;5090730;28;20208;-56
2022/05/29 03:49:28;;;;;;;4.90;1.03;;;11.00;99.90;;;;;;5091334;28;20644;-56
2022/05/29 03:51:53;;;;;;;5.13;1.20;;;10.90;99.90;;;;;;5090935;28;20171;-55
2022/05/29 03:54:20;;;;;;;2.20;0.87;;;10.90;99.90;;;;;;5091143;28;20616;-55
2022/05/29 03:56:46;;;;;;;4.00;0.97;;;11.00;99.90;;;;;;5090760;28;20186;-55
2022/05/29 03:59:12;;;;;;;2.33;1.13;;;11.00;99.90;;;;;;5090771;28;20172;-55
2022/05/29 04:01:38;;;;;;;7.37;1.20;;;11.00;99.90;;;;;;5089940;28;20359;-55
2022/05/29 04:04:05;;;;;;;5.80;0.90;;;11.00;99.90;;;;;;5090655;28;20199;-57
2022/05/29 04:06:34;;;;;;;3.87;1.20;;;11.00;99.90;;;;;;5090384;28;20208;-58
2022/05/29 04:12:03;;;;;;;3.30;0.97;;;11.10;99.90;;;;;;5090662;28;20191;-55
2022/05/29 04:14:47;;;;;;;3.07;0.80;;;11.10;99.90;;;;;;5090237;28;20221;-55
2022/05/29 04:17:18;;;;;;;3.30;0.80;;;11.10;99.90;;;;;;5090347;28;20219;-55
2022/05/29 04:19:44;;;;;;;3.10;0.73;;;11.20;99.90;;;;;;5090664;28;20187;-55
2022/05/29 04:22:19;;;;;;;4.17;1.00;;;11.00;99.90;;;;;;5090555;28;20178;-57
2022/05/29 04:24:45;;;;;;;4.43;0.80;;;11.30;99.90;;;;;;5090405;28;20254;-55
2022/05/29 04:27:13;;;;;;;2.87;0.60;;;11.20;99.90;;;;;;5090250;28;20203;-56
2022/05/29 04:29:39;;;;;;;4.73;1.03;;;11.20;99.90;;;;;;5090511;28;20179;-55
2022/05/29 04:34:55;;;;;;;3.13;0.80;;;11.20;99.90;;;;;;5090858;28;20182;-56
2022/05/29 04:37:22;;;;;;;2.40;0.90;;;11.20;99.90;;;;;;5090177;28;20214;-55
2022/05/29 04:39:47;;;;;;;3.70;0.80;;;11.20;99.90;;;;;;5090458;28;20648;-57
2022/05/29 04:42:13;;;;;;;4.10;0.80;;;11.20;99.90;;;;;;5090721;28;20207;-57
2022/05/29 04:44:39;;;;;;;4.33;0.90;;;11.20;99.90;;;;;;5089999;28;20594;-57
2022/05/29 04:47:04;;;;;;;5.27;0.70;;;11.20;99.90;;;;;;5090451;28;20680;-57
2022/05/29 04:49:31;;;;;;;2.40;1.00;;;11.10;99.90;;;;;;5090416;28;20506;-57
2022/05/29 04:51:57;;;;;;;7.30;0.80;;;11.20;99.90;;;;;;5090550;28;20178;-57
2022/05/29 04:54:24;;;;;;;3.27;0.93;;;11.20;99.90;;;;;;5090332;28;20168;-57
2022/05/29 04:56:49;;;;;;;2.80;0.90;;;11.10;99.90;;;;;;5090167;28;20179;-56
2022/05/29 04:59:16;;;;;;;3.63;0.90;;;11.10;99.90;;;;;;5090453;28;20176;-57
2022/05/29 05:01:42;;;;;;;1.80;0.70;;;11.10;99.90;;;;;;5090430;28;20310;-55
2022/05/29 05:04:08;;;;;;;1.03;0.70;;;11.10;99.90;;;;;;5090394;28;20167;-56
2022/05/29 05:06:34;;;;;;;2.63;0.90;;;11.00;99.90;;;;;;5089817;28;20212;-56
2022/05/29 05:09:01;;;;;;;1.17;0.90;;;11.10;99.90;;;;;;5090229;28;20259;-57
2022/05/29 05:11:27;;;;;;;4.07;0.80;;;11.10;99.90;;;;;;5090262;28;20655;-56
2022/05/29 05:13:52;;;;;;;2.17;0.80;;;11.10;99.90;;;;;;5090185;28;20184;-56
2022/05/29 05:16:18;;;;;;;3.70;0.70;;;11.00;99.90;;;;;;5089599;28;20343;-56
2022/05/29 05:18:44;;;;;;;6.43;1.30;;;11.10;99.90;;;;;;5090135;28;20172;-56
2022/05/29 05:21:10;;;;;;;2.33;0.73;;;10.90;99.90;;;;;;5090137;28;20176;-56
2022/05/29 05:23:36;;;;;;;3.23;1.10;;;11.00;99.90;;;;;;5090308;28;20171;-57
2022/05/29 05:26:11;;;;;;;2.43;0.80;;;10.90;99.90;;;;;;5091280;28;20230;-61
2022/05/29 05:28:37;;;;;;;1.27;0.77;;;11.00;99.90;;;;;;5093432;28;20179;-60
2022/05/29 05:31:03;;;;;;;4.50;1.00;;;10.90;99.90;;;;;;5093753;28;20171;-57
2022/05/29 05:33:29;;;;;;;2.00;0.90;;;;;;;;;;5093474;28;20631;-62
2022/05/29 05:35:55;;;;;;;4.33;1.00;;;10.50;99.90;;;;;;5093706;28;20644;-56
2022/05/29 05:38:21;;;;;;;1.97;0.70;;;10.90;99.90;;;;;;5093376;28;20175;-56
2022/05/29 05:40:47;;;;;;;3.60;0.80;;;11.00;99.90;;;;;;5093543;28;20176;-56
2022/05/29 05:43:13;;;;;;;3.67;0.60;;;11.00;99.90;;;;;;5093439;28;20229;-56
2022/05/29 05:45:42;;;;;;;4.13;0.70;;;11.20;99.90;;;;;;5093422;28;20183;-56
2022/05/29 05:48:08;;;;;;;2.33;1.03;;;11.00;99.90;;;;;;5093435;28;20249;-57
2022/05/29 05:50:36;;;;;;;4.60;1.03;;;10.80;99.90;;;;;;5093526;28;20228;-56
2022/05/29 05:53:02;;;;;;;2.27;0.90;;;10.90;99.90;;;;;;5092801;28;20171;-57
2022/05/29 05:55:28;;;;;;;2.60;0.80;;;10.90;99.90;;;;;;5093389;28;20255;-57
2022/05/29 05:57:54;;;;;;;3.00;0.70;;;10.90;99.90;;;;;;5093398;28;20251;-61
2022/05/29 06:00:20;;;;;;;4.70;0.80;;;11.00;99.90;;;;;;5092792;28;20179;-57
2022/05/29 06:02:46;;;;;;;2.50;0.90;;;10.90;99.90;;;;;;5093372;28;20205;-56
2022/05/29 06:05:14;;;;;;;2.40;0.80;;;11.10;99.90;;;;;;5092540;28;20627;-57
2022/05/29 06:07:40;;;;;;;3.80;0.93;;;11.20;99.90;;;;;;5092859;28;20699;-57
2022/05/29 06:10:07;;;;;;;3.57;0.83;;;11.30;99.90;;;;;;5092781;28;20180;-57
2022/05/29 06:12:33;;;;;;;2.57;0.90;;;11.40;99.90;;;;;;5092944;28;20249;-56
2022/05/29 06:14:59;;;;;;;2.80;1.17;;;;;;;;;;5092658;28;20636;-56
2022/05/29 06:17:27;;;;;;;3.17;0.87;;;11.60;99.90;;;;;;5092239;28;20599;-56
2022/05/29 06:19:52;;;;;;;2.97;0.90;;;11.60;99.90;;;;;;5092712;28;20176;-56
2022/05/29 06:22:18;;;;;;;3.20;1.07;;;11.70;99.90;;;;;;5092613;28;20665;-56
2022/05/29 06:24:44;;;;;;;0.90;0.70;;;11.80;99.90;;;;;;5091206;28;20563;-56
2022/05/29 06:27:10;;;;;;;6.73;0.80;;;11.20;99.90;;;;;;5092121;28;20215;-56
2022/05/29 06:29:35;;;;;;;2.57;1.10;;;11.70;99.90;;;;;;5092737;28;20172;-57
2022/05/29 06:32:04;;;;;;;4.00;1.13;;;11.50;99.90;;;;;;5091963;28;20180;-56
2022/05/29 06:34:32;;;;;;;2.67;0.87;;;11.60;99.90;;;;;;5092683;28;20188;-56
2022/05/29 06:36:58;;;;;;;11.00;1.30;;;11.70;99.90;;;;;;5092161;28;20179;-56
2022/05/29 06:39:23;;;;;;;2.87;0.83;;;9.90;99.90;;;;;;5092071;28;20217;-56
2022/05/29 06:41:49;;;;;;;2.80;0.73;;;11.90;99.90;;;;;;5091795;28;20180;-57
2022/05/29 06:44:15;;;;;;;2.73;0.90;;;12.10;99.90;;;;;;5091847;28;20175;-58
2022/05/29 06:46:40;;;;;;;2.13;0.80;;;12.10;99.90;;;;;;5090974;28;20612;-59
2022/05/29 06:49:06;;;;;;;4.47;1.10;;;12.20;99.90;;;;;;5091392;28;20692;-58
2022/05/29 06:51:32;;;;;;;3.00;0.87;;;12.00;99.90;;;;;;5092132;28;20180;-59
2022/05/29 06:54:00;;;;;;;4.73;0.93;;;12.20;99.90;;;;;;5091040;28;20208;-58
2022/05/29 06:56:25;;;;;;;4.60;0.90;;;12.10;99.90;;;;;;5091463;28;20535;-58
2022/05/29 06:58:53;;;;;;;6.50;1.00;;;12.30;99.90;;;;;;5091766;28;20278;-58
2022/05/29 07:07:09;;;;;;;4.88;1.10;;;13.00;99.90;;;;;;5075510;28;20246;-59
2022/05/29 07:09:39;;;;;;;5.20;0.88;;;13.00;99.90;;;;;;5071341;28;20184;-59
2022/05/29 07:12:10;;;;;;;3.55;1.02;;;12.80;99.90;;;;;;5071069;28;20185;-59
2022/05/29 07:14:44;;;;;;;8.15;1.02;;;12.80;99.90;;;;;;5080925;28;20251;-59
2022/05/29 07:17:11;;;;;;;4.10;1.00;;;12.90;99.90;;;;;;5081261;28;20215;-58
2022/05/29 07:19:37;;;;;;;4.68;1.02;;;12.80;99.90;;;;;;5079206;28;20710;-59
2022/05/29 07:22:03;;;;;;;5.28;1.20;;;12.70;99.90;;;;;;5079980;28;20409;-59
2022/05/29 07:24:32;;;;;;;2.47;0.90;;;12.90;99.90;;;;;;5087494;28;20457;-59
2022/05/29 07:26:58;;;;;;;3.17;0.80;;;13.00;99.90;;;;;;5091228;28;20345;-59
2022/05/29 07:29:24;;;;;;;3.13;1.00;;;13.00;99.90;;;;;;5091235;28;20204;-58
2022/05/29 07:31:52;;;;;;;3.85;1.23;;;13.00;99.90;;;;;;5082484;28;20172;-58
2022/05/29 07:34:17;;;;;;;5.05;1.20;;;14.60;99.90;;;;;;5070653;28;20236;-59
2022/05/29 07:36:43;;;;;;;4.82;1.15;;;13.30;99.90;;;;;;5077691;28;20176;-58
2022/05/29 07:39:09;;;;;;;5.78;0.88;;;13.40;99.90;;;;;;5090795;28;20190;-59
2022/05/29 07:44:19;;;;;;;5.30;1.05;;;14.10;99.90;;;;;;5090664;28;20178;-60
2022/05/29 07:46:45;;;;;;;6.15;1.15;;;14.00;99.90;;;;;;5090700;28;20207;-57
2022/05/29 07:49:11;;;;;;;9.10;1.40;;;14.30;99.90;;;;;;5089537;28;20164;-58
2022/05/29 07:51:37;;;;;;;4.63;0.95;;;14.40;99.90;;;;;;5090783;28;20179;-65
2022/05/29 07:54:03;;;;;;;2.58;0.95;;;14.60;99.90;;;;;;5089585;28;20176;-66
2022/05/29 07:56:28;;;;;;;5.82;1.15;;;14.70;99.90;;;;;;5082322;28;20164;-65
2022/05/29 07:58:54;;;;;;;2.45;0.73;;;15.00;99.90;;;;;;5090522;28;20172;-65
2022/05/29 08:01:20;;;;;;;7.35;1.15;;;15.20;99.90;;;;;;5090729;28;20299;-67
2022/05/29 08:03:46;;;;;;;7.55;1.05;;;15.10;99.90;;;;;;5090230;28;20175;-66
2022/05/29 08:06:12;;;;;;;5.43;1.00;;;15.10;99.90;;;;;;5090730;28;20259;-67
2022/05/29 08:08:39;;;;;;;7.15;0.70;;;15.10;99.90;;;;;;5090184;28;20176;-67
2022/05/29 08:11:05;;;;;;;2.72;0.70;;;15.10;99.90;;;;;;5090250;28;20168;-62
2022/05/29 08:13:32;;;;;;;5.50;1.00;;;15.30;99.90;;;;;;5089964;28;20183;-65
2022/05/29 08:15:58;;;;;;;5.50;0.77;;;15.20;99.90;;;;;;5089924;28;20212;-65
2022/05/29 08:18:25;;;;;;;7.43;1.17;;;15.20;99.90;;;;;;5090008;28;20180;-65
2022/05/29 08:20:52;;;;;;;5.47;1.00;;;15.50;99.90;;;;;;5090203;28;20721;-66
2022/05/29 08:23:18;;;;;;;3.58;0.70;;;15.60;99.90;;;;;;5089698;28;20172;-66
2022/05/29 08:31:24;;;;;;;2.55;0.90;;;14.20;99.90;;;;;;5075825;28;20272;-61
2022/05/29 08:33:50;;;;;;;2.60;0.90;;;14.10;99.90;;;;;;5080714;28;20647;-58
2022/05/29 08:36:22;;;;;;;4.30;0.88;;;14.00;99.90;;;;;;5073625;28;20187;-57
2022/05/29 08:38:50;;;;;;;3.80;0.88;;;13.80;99.90;;;;;;5069890;28;20204;-58
2022/05/29 08:41:21;;;;;;;6.47;0.77;;;13.60;99.90;;;;;;5087408;28;21472;-58
2022/05/29 08:44:06;;;;;;;5.15;0.80;;;13.80;99.90;;;;;;5087133;28;20795;-58
2022/05/29 08:46:56;;;;;;;2.58;0.98;;;13.80;99.90;;;;;;5069854;28;20200;-59
2022/05/29 08:49:37;;;;;;;4.85;0.93;;;13.80;99.90;;;;;;5089963;28;20168;-65
2022/05/29 08:52:17;;;;;;;4.97;0.98;;;13.90;99.90;;;;;;5089834;28;20176;-64
2022/05/29 08:55:07;;;;;;;3.75;1.33;;;14.20;99.90;;;;;;5090183;28;20237;-65
2022/05/29 08:57:59;;;;;;;3.15;1.27;;;14.70;99.90;;;;;;5083024;28;20669;-61
2022/05/29 09:00:33;;;;;;;6.47;0.95;;;14.30;99.90;;;;;;5082369;28;20258;-61
2022/05/29 09:03:07;;;;;;;6.03;1.33;;;14.30;99.90;;;;;;5094378;28;20202;-61
2022/05/29 09:05:39;;;;;;;3.88;1.08;;;14.30;99.90;;;;;;5094290;28;20184;-60
2022/05/29 09:08:17;;;;;;;3.55;0.95;;;14.30;99.90;;;;;;5093922;28;20218;-60
2022/05/29 09:10:49;;;;;;;2.22;0.70;;;15.10;99.90;;;;;;5093903;28;20186;-61
2022/05/29 09:13:19;;;;;;;6.28;1.25;;;15.30;99.90;;;;;;5094301;28;20171;-60
2022/05/29 09:15:50;;;;;;;3.78;0.93;;;15.70;99.90;;;;;;5093401;28;20232;-60
2022/05/29 09:18:30;;;;;;;5.18;0.90;;;15.50;99.90;;;;;;5093595;28;20179;-61
2022/05/29 09:21:07;;;;;;;4.43;1.17;;;15.40;99.90;;;;;;5093051;28;20194;-61
2022/05/29 09:23:44;;;;;;;3.30;0.90;;;15.20;99.90;;;;;;5093962;28;20262;-60
2022/05/29 09:26:17;;;;;;;4.25;0.70;;;15.30;99.90;;;;;;5093765;28;20639;-59
2022/05/29 09:28:43;;;;;;;3.90;1.05;;;15.60;99.90;;;;;;5093432;28;20191;-59
2022/05/29 09:31:13;;;;;;;3.30;0.90;;;15.80;99.90;;;;;;5094191;28;20651;-61
2022/05/29 09:33:39;;;;;;;4.05;0.82;;;16.10;99.90;;;;;;5093480;28;20180;-60
2022/05/29 09:36:24;;;;;;;3.00;0.90;;;16.10;99.90;;;;;;5093845;28;20535;-60
2022/05/29 09:39:08;;;;;;;9.13;1.15;;;16.80;99.90;;;;;;5093169;28;20558;-60
2022/05/29 09:41:37;;;;;;;4.43;1.10;;;16.90;99.90;;;;;;5092304;28;20258;-60
2022/05/29 09:44:06;;;;;;;8.73;1.17;;;16.40;99.90;;;;;;5093369;28;20566;-61
2022/05/29 09:46:34;;;;;;;5.75;0.95;;;16.10;99.90;;;;;;5092824;28;20203;-60
2022/05/29 09:52:16;;;;;;;4.97;1.17;;;17.10;99.90;;;;;;5085280;28;20233;-61
2022/05/29 09:55:09;;;;;;;5.38;1.15;;;17.10;99.90;;;;;;5070622;28;20549;-61
2022/05/29 09:57:49;;;;;;;3.88;0.90;;;16.60;99.90;;;;;;5083472;28;20184;-61
2022/05/29 10:00:27;;;;;;;5.78;1.05;;;16.50;99.90;;;;;;5092510;28;20537;-61
2022/05/29 10:02:54;;;;;;;3.63;1.13;;;16.70;99.90;;;;;;5093125;28;20168;-61
2022/05/29 10:05:28;;;;;;;4.18;0.93;;;17.20;99.90;;;;;;5092631;28;20313;-61
2022/05/29 10:07:57;;;;;;;3.63;0.70;;;17.10;99.90;;;;;;5093122;28;20203;-61
2022/05/29 10:10:25;;;;;;;4.35;1.00;;;17.60;99.90;;;;;;5085440;28;20219;-61
2022/05/29 10:12:57;;;;;;;3.15;0.80;;;17.80;99.90;;;;;;5090455;28;20262;-62
2022/05/29 10:15:26;;;;;;;4.40;0.95;;;17.60;99.90;;;;;;5091738;28;20171;-61
2022/05/29 10:18:01;;;;;;;4.05;0.90;;;17.50;99.90;;;;;;5092697;28;20674;-62
2022/05/29 10:20:30;;;;;;;3.97;0.85;;;17.00;99.90;;;;;;5078343;28;20180;-60
2022/05/29 10:22:57;;;;;;;7.80;1.25;;;16.50;99.90;;;;;;5093273;28;20329;-61
2022/05/29 10:25:32;;;;;;;3.25;1.00;;;16.80;99.90;;;;;;5086719;28;20179;-59
2022/05/29 10:28:04;;;;;;;2.22;0.80;;;16.80;99.90;;;;;;5090446;28;20222;-65
2022/05/29 10:30:32;;;;;;;3.95;1.10;;;16.40;99.90;;;;;;5092738;28;20168;-61
2022/05/29 10:33:08;;;;;;;4.32;1.08;;;16.90;99.90;;;;;;5092816;28;20758;-60
2022/05/29 10:35:37;;;;;;;3.50;0.98;;;16.90;99.90;;;;;;5092686;28;20174;-62
2022/05/29 10:38:15;;;;;;;3.10;0.80;;;16.70;99.90;;;;;;5092229;28;20172;-61
2022/05/29 10:40:42;;;;;;;4.50;1.20;;;15.70;99.90;;;;;;5092329;28;20658;-58
2022/05/29 10:43:09;;;;;;;4.50;0.98;;;15.80;99.90;;;;;;5091996;28;20172;-59
2022/05/29 10:45:44;;;;;;;7.22;1.30;;;15.70;99.90;;;;;;5092880;28;20268;-59
2022/05/29 10:48:31;;;;;;;6.80;1.00;;;15.80;99.90;;;;;;5091005;28;20547;-58
2022/05/29 10:51:21;;;;;;;3.17;0.93;;;16.00;99.90;;;;;;5090713;28;20616;-58
2022/05/29 10:53:55;;;;;;;3.05;1.10;;;16.50;99.90;;;;;;5090257;28;20179;-58
2022/05/29 10:56:50;;;;;;;6.38;1.20;;;16.30;99.90;;;;;;5090294;28;20647;-59
2022/05/29 10:59:39;;;;;;;6.13;1.30;;;16.40;99.90;;;;;;5052048;28;20264;-59
2022/05/29 11:05:16;;;;;;;3.08;1.00;;;17.10;99.90;;;;;;5090270;28;20737;-62
2022/05/29 11:07:51;;;;;;;3.90;1.20;;;17.40;99.90;;;;;;5091961;28;20214;-57
2022/05/29 11:10:28;;;;;;;4.00;0.90;;;17.60;99.90;;;;;;5091015;28;20163;-58
2022/05/29 11:13:27;;;;;;;6.93;1.23;;;16.70;99.90;;;;;;5091593;28;20256;-58
2022/05/29 11:16:26;;;;;;;3.45;0.73;;;16.90;99.90;;;;;;5091436;28;20726;-57
2022/05/29 11:19:11;;;;;;;2.65;0.88;;;17.00;99.90;;;;;;5091475;28;20172;-58
2022/05/29 11:21:45;;;;;;;4.13;1.00;;;16.60;99.90;;;;;;5091571;28;20713;-58
2022/05/29 11:24:19;;;;;;;3.67;1.10;;;16.60;99.90;;;;;;5090637;28;20168;-56
2022/05/29 11:27:00;;;;;;;3.47;0.95;;;15.90;99.90;;;;;;5084784;28;20286;-58
2022/05/29 11:29:37;;;;;;;3.85;1.02;;;15.90;99.90;;;;;;5081224;28;20167;-58
2022/05/29 11:32:39;;;;;;;3.55;1.02;;;16.10;99.90;;;;;;5091745;28;20203;-59
2022/05/29 11:35:11;;;;;;;3.15;0.95;;;16.00;99.90;;;;;;5091510;28;20171;-58
2022/05/29 11:37:50;;;;;;;7.13;0.95;;;16.20;99.90;;;;;;5091394;28;20651;-59
2022/05/29 11:40:20;;;;;;;5.30;1.10;;;16.00;99.90;;;;;;5091047;28;20203;-59
2022/05/29 11:42:52;;;;;;;2.40;0.98;;;16.30;99.90;;;;;;5090924;28;20266;-59
2022/05/29 11:51:06;;;;;;;7.07;1.00;;;16.00;99.90;;;;;;5090901;28;20182;-59
2022/05/29 11:51:10;;;;;;;5.32;1.20;;;16.40;99.90;;;;;;5090921;28;20190;-59
2022/05/29 11:53:49;;;;;;;3.25;0.90;;;16.50;99.90;;;;;;5090688;28;20215;-59
2022/05/29 11:56:23;;;;;;;3.05;1.27;;;16.50;99.90;;;;;;5081383;28;20179;-59
2022/05/29 11:58:56;;;;;;;6.63;1.20;;;16.40;99.90;;;;;;5091172;28;20645;-59
2022/05/29 12:01:26;;;;;;;5.30;1.10;;;16.90;99.90;;;;;;5090616;28;20203;-59
2022/05/29 12:04:05;;;;;;;4.20;1.20;;;17.20;99.90;;;;;;5090663;28;20437;-59
2022/05/29 12:06:38;;;;;;;4.95;1.33;;;17.30;99.90;;;;;;5090390;28;20258;-59
2022/05/29 12:09:12;;;;;;;3.53;0.90;;;17.40;99.90;;;;;;5090295;28;20184;-59
2022/05/29 12:12:10;;;;;;;1.75;0.88;;;17.40;99.90;;;;;;5090326;28;20179;-59
2022/05/29 12:14:43;;;;;;;3.08;1.00;;;17.30;99.90;;;;;;5081209;28;20279;-59
2022/05/29 12:17:46;;;;;;;5.75;1.27;;;18.00;99.90;;;;;;5089635;28;20223;-59
2022/05/29 12:20:21;;;;;;;3.47;0.88;;;17.60;99.90;;;;;;5090706;28;20180;-59
2022/05/29 12:22:57;;;;;;;4.20;0.85;;;17.90;99.90;;;;;;5087780;28;20175;-59
2022/05/29 12:25:32;;;;;;;4.90;1.08;;;17.90;99.90;;;;;;5070498;28;20176;-59
2022/05/29 12:28:03;;;;;;;4.80;1.20;;;17.30;99.90;;;;;;5089540;28;20298;-59
2022/05/29 12:30:37;;;;;;;5.80;1.25;;;17.30;99.90;;;;;;5089478;28;20176;-60
2022/05/29 12:33:14;;;;;;;5.60;0.95;;;17.60;99.90;;;;;;5089039;28;20621;-59
2022/05/29 12:35:51;;;;;;;7.70;1.45;;;17.50;99.90;;;;;;5091258;28;20171;-57
2022/05/29 12:38:29;;;;;;;4.38;1.20;;;17.50;99.90;;;;;;5094299;28;20195;-58
2022/05/29 12:40:57;;;;;;;7.75;1.33;;;17.40;99.90;;;;;;5094701;28;20660;-58
2022/05/29 12:43:23;;;;;;;5.20;0.70;;;;;;;;;;5094210;28;20636;-58
2022/05/29 12:45:49;;;;;;;3.58;0.95;;;;;;;;;;5093828;28;20183;-59
2022/05/29 12:48:27;;;;;;;3.33;1.00;;;16.30;99.90;;;;;;5094282;28;20204;-59
2022/05/29 12:51:26;;;;;;;8.95;1.30;;;16.20;99.90;;;;;;5094098;28;20184;-58
2022/05/29 12:53:57;;;;;;;2.88;1.05;;;16.60;99.90;;;;;;5094342;28;20184;-58
2022/05/29 12:56:44;;;;;;;4.53;1.40;;;16.50;99.90;;;;;;5093551;28;20168;-58
2022/05/29 12:59:34;;;;;;;4.00;1.00;;;16.80;99.90;;;;;;5086878;28;20192;-59
2022/05/29 13:02:15;;;;;;;5.93;0.90;;;17.00;99.90;;;;;;5088697;28;20632;-58
2022/05/29 13:04:59;;;;;;;3.03;1.10;;;16.80;99.90;;;;;;5090548;28;20171;-58
2022/05/29 13:07:52;;;;;;;3.88;1.35;;;16.30;99.90;;;;;;5085998;28;20216;-58
2022/05/29 13:10:27;;;;;;;2.50;1.15;;;16.40;99.90;;;;;;5079033;28;20247;-58
2022/05/29 13:13:13;;;;;;;7.72;1.50;;;16.40;99.90;;;;;;5086582;28;20218;-58
2022/05/29 13:15:40;;;;;;;6.57;1.40;;;16.40;99.90;;;;;;5078321;28;20212;-58
2022/05/29 13:18:10;;;;;;;8.38;1.80;;;16.20;99.90;;;;;;5073840;28;20204;-58
2022/05/29 13:21:18;;;;;;;6.65;1.80;;;16.30;99.90;;;;;;5092824;28;20203;-58
2022/05/29 13:23:51;;;;;;;3.83;1.42;;;16.00;99.90;;;;;;5093104;28;20168;-58
2022/05/29 13:26:19;;;;;;;4.38;1.48;;;16.30;99.90;;;;;;5088523;28;20207;-58
2022/05/29 13:28:48;;;;;;;5.63;1.88;;;16.10;99.90;;;;;;5093728;28;20233;-58
2022/05/29 13:31:17;;;;;;;4.53;1.63;;;16.30;99.90;;;;;;5093692;28;20168;-58
2022/05/29 13:33:42;;;;;;;7.57;1.50;;;16.30;99.90;;;;;;5093512;28;20199;-58
2022/05/29 13:36:10;;;;;;;10.00;1.58;;;16.40;99.90;;;;;;5092492;28;20289;-58
2022/05/29 13:38:44;;;;;;;7.55;1.58;;;16.50;99.90;;;;;;5092715;28;20194;-58
2022/05/29 13:41:32;;;;;;;4.60;1.17;;;16.60;99.90;;;;;;5093452;28;20225;-58
2022/05/29 13:44:30;;;;;;;2.05;1.00;;;16.80;99.90;;;;;;5093489;28;20295;-57
2022/05/29 13:47:22;;;;;;;7.07;1.38;;;17.70;99.90;;;;;;5091961;28;20269;-58
2022/05/29 13:50:10;;;;;;;3.35;1.33;;;17.60;99.90;;;;;;5090325;28;20196;-59
2022/05/29 13:52:52;;;;;;;6.55;1.38;;;18.70;99.90;;;;;;5084375;28;20187;-62